Time;durP1;ratioP1;P1;durP2;ratioP2;P2;SDS_P1;SDS_P2;PMS_P1;PMS_P2;Temp;Humidity;BMP_temperature;BMP_pressure;BME280_temperature;BME280_humidity;BME280_pressure;Samples;Min_cycle;Max_cycle;Signal;HPM_P1;HPM_P2
2023/12/03 00:00:50;;;;;;;14.27;6.95;;;;;;;-3.59;100.00;98585.00;6099430;19;20010;-70
2023/12/03 00:02:50;;;;;;;14.32;7.22;;;;;;;-3.61;100.00;98592.59;6099752;19;20010;-70
2023/12/03 00:04:52;;;;;;;13.40;7.18;;;;;;;-3.58;100.00;98594.75;6099000;19;20052;-70
2023/12/03 00:06:53;;;;;;;15.65;8.18;;;;;;;-3.60;100.00;98588.81;6100195;19;20019;-70
2023/12/03 00:08:53;;;;;;;16.55;7.80;;;;;;;-3.62;100.00;98592.91;6096846;19;20014;-70
2023/12/03 00:10:54;;;;;;;13.00;7.00;;;;;;;-3.61;100.00;98589.91;6099612;19;20018;-70
2023/12/03 00:12:54;;;;;;;13.82;6.97;;;;;;;-3.59;100.00;98586.91;6099139;19;20019;-70
2023/12/03 00:14:54;;;;;;;14.95;7.93;;;;;;;-3.57;100.00;98593.66;6099927;19;20014;-70
2023/12/03 00:16:55;;;;;;;15.00;7.93;;;;;;;-3.60;100.00;98594.22;6096725;19;20015;-70
2023/12/03 00:18:55;;;;;;;15.00;7.25;;;;;;;-3.63;100.00;98585.88;6098541;19;20116;-70
2023/12/03 00:20:55;;;;;;;16.23;8.18;;;;;;;-3.61;100.00;98602.63;6100008;19;20011;-70
2023/12/03 00:22:56;;;;;;;16.95;8.43;;;;;;;-3.61;100.00;98599.91;6097316;19;20062;-70
2023/12/03 00:24:56;;;;;;;17.20;9.02;;;;;;;-3.63;100.00;98594.78;6099311;19;20554;-70
2023/12/03 00:26:58;;;;;;;17.98;7.78;;;;;;;-3.58;100.00;98605.56;6099833;19;20013;-70
2023/12/03 00:28:59;;;;;;;14.02;7.30;;;;;;;-3.58;100.00;98604.75;6099548;19;20010;-70
2023/12/03 00:30:59;;;;;;;15.48;8.50;;;;;;;-3.58;100.00;98607.47;6099336;19;20021;-70
2023/12/03 00:32:59;;;;;;;16.27;7.43;;;;;;;-3.64;100.00;98611.28;6100181;19;20002;-70
2023/12/03 00:35:00;;;;;;;17.23;8.52;;;;;;;-3.69;100.00;98602.13;6099585;19;20017;-70
2023/12/03 00:37:00;;;;;;;16.23;7.72;;;;;;;-3.60;100.00;98607.75;6099576;19;20014;-70
2023/12/03 00:39:01;;;;;;;14.20;8.07;;;;;;;-3.62;100.00;98609.94;6099677;19;20011;-70
2023/12/03 00:41:01;;;;;;;16.33;7.97;;;;;;;-3.62;100.00;98615.34;6099855;19;20011;-70
2023/12/03 00:43:01;;;;;;;17.63;8.23;;;;;;;-3.62;100.00;98615.34;6100112;19;20007;-70
2023/12/03 00:45:02;;;;;;;15.65;9.07;;;;;;;-3.57;100.00;98615.28;6098945;19;20389;-70
2023/12/03 00:47:02;;;;;;;17.48;7.97;;;;;;;-3.59;100.00;98611.25;6100054;19;20007;-70
2023/12/03 00:49:03;;;;;;;16.35;8.77;;;;;;;-3.62;100.00;98609.94;6099074;19;20014;-70
2023/12/03 00:51:04;;;;;;;17.52;8.68;;;;;;;-3.63;100.00;98624.53;6099717;19;20002;-70
2023/12/03 00:53:04;;;;;;;20.10;9.05;;;;;;;-3.62;100.00;98625.34;6101634;19;20487;-70
2023/12/03 00:55:05;;;;;;;16.98;9.00;;;;;;;-3.64;100.00;98620.22;6105626;19;20374;-70
2023/12/03 00:57:05;;;;;;;21.15;10.25;;;;;;;-3.64;100.00;98625.63;6104827;19;20348;-70
2023/12/03 00:59:06;;;;;;;17.42;9.45;;;;;;;-3.68;100.00;98625.38;6104548;19;20007;-70
2023/12/03 01:01:07;;;;;;;17.85;8.55;;;;;;;-3.64;100.00;98622.09;6102334;19;20372;-70
2023/12/03 01:03:07;;;;;;;19.90;9.60;;;;;;;-3.62;100.00;98626.16;6100841;19;20009;-70
2023/12/03 01:05:07;;;;;;;16.02;8.20;;;;;;;-3.59;100.00;98628.28;6101173;19;20399;-70
2023/12/03 01:07:08;;;;;;;16.02;8.65;;;;;;;-3.57;100.00;98628.81;6102413;19;20002;-70
2023/12/03 01:09:08;;;;;;;16.80;8.98;;;;;;;-3.55;100.00;98625.84;6101684;19;20002;-70
2023/12/03 01:11:09;;;;;;;16.55;8.52;;;;;;;-3.56;100.00;98626.91;6102266;19;19998;-70
2023/12/03 01:13:09;;;;;;;16.30;8.77;;;;;;;-3.59;100.00;98624.78;6102900;19;20419;-70
2023/12/03 01:15:09;;;;;;;18.83;8.45;;;;;;;-3.58;100.00;98632.59;6102817;19;20017;-70
2023/12/03 01:17:10;;;;;;;14.88;8.07;;;;;;;-3.55;100.00;98634.75;6103585;19;20010;-70
2023/12/03 01:19:10;;;;;;;19.00;9.00;;;;;;;-3.58;100.00;98629.91;6102629;19;20070;-70
2023/12/03 01:21:10;;;;;;;17.63;8.63;;;;;;;-3.60;100.00;98645.59;6103472;19;20013;-70
2023/12/03 01:23:11;;;;;;;15.57;7.78;;;;;;;-3.65;100.00;98640.22;6101812;19;20066;-70
2023/12/03 01:25:11;;;;;;;13.68;7.30;;;;;;;-3.69;100.00;98648.09;6101869;19;20015;-70
2023/12/03 01:27:11;;;;;;;13.70;7.32;;;;;;;-3.67;100.00;98650.53;6094574;19;20499;-70
2023/12/03 01:29:12;;;;;;;15.07;7.60;;;;;;;-3.72;100.00;98651.38;6100284;19;20006;-70
2023/12/03 01:31:12;;;;;;;17.08;8.70;;;;;;;-3.70;100.00;98651.09;6102480;19;20011;-70
2023/12/03 01:33:12;;;;;;;16.98;8.30;;;;;;;-3.68;100.00;98659.72;6102198;19;20006;-70
2023/12/03 01:35:13;;;;;;;16.08;8.25;;;;;;;-3.68;100.00;98663.22;6101902;19;20088;-70
2023/12/03 01:37:13;;;;;;;14.80;7.97;;;;;;;-3.70;100.00;98672.72;6102576;19;20010;-70
2023/12/03 01:39:14;;;;;;;16.85;8.20;;;;;;;-3.70;100.00;98665.41;6099517;19;20021;-70
2023/12/03 01:41:14;;;;;;;13.90;7.78;;;;;;;-3.73;100.00;98665.16;6103589;19;20010;-70
2023/12/03 01:43:14;;;;;;;16.73;7.97;;;;;;;-3.71;100.00;98679.22;6102887;19;20006;-70
2023/12/03 01:45:15;;;;;;;16.25;8.15;;;;;;;-3.69;100.00;98682.44;6103093;19;20467;-70
2023/12/03 01:47:15;;;;;;;13.93;7.78;;;;;;;-3.68;100.00;98673.25;6103816;19;20711;-70
2023/12/03 01:49:17;;;;;;;14.18;8.88;;;;;;;-3.69;100.00;98667.03;6102622;19;20470;-70
2023/12/03 01:51:18;;;;;;;13.98;8.10;;;;;;;-3.69;100.00;98675.16;6102229;19;20003;-70
2023/12/03 01:53:19;;;;;;;15.53;7.77;;;;;;;-3.73;100.00;98674.06;6103632;19;20056;-70
2023/12/03 01:55:20;;;;;;;15.35;7.75;;;;;;;-3.75;100.00;98670.84;6101239;19;20006;-70
2023/12/03 01:57:21;;;;;;;14.35;7.00;;;;;;;-3.78;100.00;98679.53;6103672;19;20014;-70
2023/12/03 01:59:23;;;;;;;12.55;6.80;;;;;;;-3.79;100.00;98677.91;6101814;19;20450;-70
2023/12/03 02:01:23;;;;;;;12.63;6.93;;;;;;;-3.77;100.00;98675.72;6102248;19;20022;-70
2023/12/03 02:03:24;;;;;;;13.77;7.57;;;;;;;-3.78;100.00;98670.63;6102206;19;20486;-70
2023/12/03 02:05:24;;;;;;;16.98;7.10;;;;;;;-3.79;100.00;98664.41;6099728;19;20357;-70
2023/12/03 02:07:25;;;;;;;17.13;7.93;;;;;;;-3.81;100.00;98658.44;6102803;19;20014;-70
2023/12/03 02:09:26;;;;;;;11.93;6.80;;;;;;;-3.82;100.00;98662.22;6101052;19;20041;-70
2023/12/03 02:11:27;;;;;;;13.43;7.32;;;;;;;-3.83;100.00;98660.63;6102081;19;20010;-70
2023/12/03 02:13:31;;;;;;;11.77;6.90;;;;;;;-3.84;100.00;98661.72;6102258;19;20002;-70
2023/12/03 02:15:32;;;;;;;16.77;8.80;;;;;;;-3.85;100.00;98657.41;6101565;19;20455;-70
2023/12/03 02:17:32;;;;;;;15.65;7.50;;;;;;;-3.85;100.00;98665.50;6102558;19;20218;-70
2023/12/03 02:19:32;;;;;;;16.63;7.55;;;;;;;-3.85;100.00;98654.69;6100858;19;20006;-70
2023/12/03 02:21:33;;;;;;;13.80;7.60;;;;;;;-3.89;100.00;98659.03;6101780;19;20371;-70
2023/12/03 02:23:33;;;;;;;14.85;8.05;;;;;;;-3.85;100.00;98652.00;6101914;19;20011;-70
2023/12/03 02:25:33;;;;;;;17.80;8.18;;;;;;;-3.88;100.00;98654.47;6101511;19;20310;-70
2023/12/03 02:27:34;;;;;;;15.52;7.70;;;;;;;-3.89;100.00;98650.91;6097258;19;20417;-70
2023/12/03 02:29:34;;;;;;;21.55;8.38;;;;;;;-3.89;100.00;98645.50;6094388;19;20025;-70
2023/12/03 02:31:35;;;;;;;18.15;7.32;;;;;;;-3.91;100.00;98630.66;6095034;19;20474;-70
2023/12/03 02:33:35;;;;;;;14.02;6.88;;;;;;;-3.92;100.00;98631.75;6093426;19;20394;-70
2023/12/03 02:35:36;;;;;;;14.18;8.48;;;;;;;-3.92;100.00;98627.16;6093101;19;20006;-70
2023/12/03 02:37:36;;;;;;;15.32;7.32;;;;;;;-3.92;100.00;98643.38;6094821;19;20002;-70
2023/12/03 02:39:37;;;;;;;15.95;6.47;;;;;;;-3.93;100.00;98640.97;6093965;19;20007;-70
2023/12/03 02:41:37;;;;;;;14.32;7.65;;;;;;;-3.89;100.00;98648.22;6094592;19;20010;-70
2023/12/03 02:43:37;;;;;;;12.88;6.90;;;;;;;-3.91;100.00;98636.06;6094650;19;20010;-70
2023/12/03 02:45:38;;;;;;;15.23;7.68;;;;;;;-3.91;100.00;98641.47;6094271;19;21016;-70
2023/12/03 02:47:38;;;;;;;13.70;7.43;;;;;;;-3.90;100.00;98640.38;6094676;19;20074;-70
2023/12/03 02:49:38;;;;;;;12.88;6.88;;;;;;;-3.94;100.00;98650.16;6093393;19;20369;-70
2023/12/03 02:51:39;;;;;;;15.00;7.05;;;;;;;-3.93;100.00;98652.56;6094487;19;20006;-70
2023/12/03 02:53:39;;;;;;;14.30;7.35;;;;;;;-3.93;100.00;98651.78;6093676;19;20021;-70
2023/12/03 02:55:40;;;;;;;14.65;7.25;;;;;;;-3.92;100.00;98661.50;6094228;19;20010;-70
2023/12/03 02:57:40;;;;;;;13.15;7.47;;;;;;;-3.92;100.00;98658.78;6093712;19;20011;-70
2023/12/03 02:59:40;;;;;;;14.35;7.57;;;;;;;-3.93;100.00;98657.97;6093241;19;20066;-70
2023/12/03 03:01:41;;;;;;;17.48;7.70;;;;;;;-3.94;100.00;98658.28;6093940;19;20455;-70
2023/12/03 03:03:42;;;;;;;16.25;7.60;;;;;;;-3.96;100.00;98658.56;6094794;19;20531;-70
2023/12/03 03:05:42;;;;;;;12.90;7.32;;;;;;;-3.96;100.00;98663.97;6094203;19;20341;-70
2023/12/03 03:07:42;;;;;;;16.25;7.57;;;;;;;-3.91;100.00;98663.91;6092304;19;20006;-70
2023/12/03 03:09:43;;;;;;;11.77;6.53;;;;;;;-3.88;100.00;98665.28;6089800;19;20025;-70
2023/12/03 03:11:43;;;;;;;13.02;7.50;;;;;;;-3.81;100.00;98666.53;6091254;19;20530;-70
2023/12/03 03:13:43;;;;;;;16.10;8.05;;;;;;;-3.83;100.00;98665.22;6092212;19;20031;-70
2023/12/03 03:15:44;;;;;;;11.65;6.57;;;;;;;-3.83;100.00;98665.22;6092090;19;19998;-70
2023/12/03 03:17:44;;;;;;;13.88;7.22;;;;;;;-3.79;100.00;98664.41;6093116;19;20038;-70
2023/12/03 03:19:44;;;;;;;14.10;7.40;;;;;;;-3.81;100.00;98657.63;6091505;19;20300;-70
2023/12/03 03:21:45;;;;;;;13.38;7.10;;;;;;;-3.76;100.00;98657.63;6091935;19;20373;-70
2023/12/03 03:23:45;;;;;;;17.27;7.20;;;;;;;-3.80;100.00;98657.38;6094002;19;20078;-70
2023/12/03 03:25:45;;;;;;;14.18;7.05;;;;;;;-3.80;100.00;98667.38;6093163;19;20037;-70
2023/12/03 03:27:46;;;;;;;16.17;7.80;;;;;;;-3.81;100.00;98671.16;6096774;19;20003;-70
2023/12/03 03:29:46;;;;;;;20.10;8.35;;;;;;;-3.83;100.00;98662.53;6099214;19;20070;-69
2023/12/03 03:31:46;;;;;;;13.43;7.82;;;;;;;-3.83;100.00;98663.31;6099675;19;20007;-70
2023/12/03 03:33:50;;;;;;;16.10;7.00;;;;;;;-3.87;100.00;98667.69;6099552;19;20006;-70
2023/12/03 03:35:51;;;;;;;15.98;7.97;;;;;;;-3.86;100.00;98663.91;6099095;19;19995;-70
2023/12/03 03:37:51;;;;;;;12.15;7.53;;;;;;;-3.86;100.00;98665.78;6099699;19;20030;-70
2023/12/03 03:39:51;;;;;;;16.38;7.88;;;;;;;-3.88;100.00;98673.38;6098566;19;20021;-70
2023/12/03 03:41:52;;;;;;;17.35;8.20;;;;;;;-3.84;100.00;98664.41;6099069;19;20002;-70
2023/12/03 03:43:52;;;;;;;14.32;6.63;;;;;;;-3.80;100.00;98667.38;6098944;19;20332;-70
2023/12/03 03:45:53;;;;;;;14.57;7.72;;;;;;;-3.85;100.00;98656.59;6100083;19;20002;-70
2023/12/03 03:47:53;;;;;;;16.98;7.50;;;;;;;-3.82;100.00;98662.22;6100069;19;20029;-70
2023/12/03 03:49:53;;;;;;;15.10;7.75;;;;;;;-3.78;100.00;98662.50;6098496;19;20324;-70
2023/12/03 03:51:54;;;;;;;15.18;7.53;;;;;;;-3.73;100.00;98670.56;6099080;19;20013;-70
2023/12/03 03:53:54;;;;;;;16.70;7.63;;;;;;;-3.77;100.00;98664.91;6097958;19;20006;-70
2023/12/03 03:55:55;;;;;;;17.52;7.50;;;;;;;-3.78;100.00;98670.63;6098918;19;20006;-70
2023/12/03 03:57:55;;;;;;;12.75;7.47;;;;;;;-3.77;100.00;98667.63;6099601;19;20007;-70
2023/12/03 03:59:55;;;;;;;17.23;8.52;;;;;;;-3.72;100.00;98674.91;6097566;19;19999;-70
2023/12/03 04:01:55;;;;;;;15.57;7.70;;;;;;;-3.77;100.00;98672.22;6098652;19;20382;-70
2023/12/03 04:03:56;;;;;;;13.45;7.40;;;;;;;-3.80;100.00;98670.09;6099034;19;20455;-70
2023/12/03 04:06:00;;;;;;;15.18;7.97;;;;;;;-3.83;100.00;98676.03;6098615;19;20493;-70
2023/12/03 04:08:00;;;;;;;15.38;7.70;;;;;;;-3.81;100.00;98674.66;6098301;19;20102;-70
2023/12/03 04:10:01;;;;;;;16.33;8.15;;;;;;;-3.78;100.00;98674.13;6099267;19;20002;-70
2023/12/03 04:12:02;;;;;;;13.95;8.13;;;;;;;-3.79;100.00;98685.22;6097694;19;20019;-70
2023/12/03 04:14:03;;;;;;;19.15;8.40;;;;;;;-3.81;100.00;98681.97;6097817;19;20573;-70
2023/12/03 04:16:04;;;;;;;15.10;7.38;;;;;;;-3.79;100.00;98682.50;6098210;19;20002;-70
2023/12/03 04:18:04;;;;;;;18.58;8.45;;;;;;;-3.79;100.00;98686.03;6096398;19;20009;-70
2023/12/03 04:20:06;;;;;;;16.48;7.68;;;;;;;-3.76;100.00;98680.06;6097231;19;20003;-70
2023/12/03 04:22:07;;;;;;;15.50;8.40;;;;;;;-3.72;100.00;98674.91;6097450;19;20014;-70
2023/12/03 04:24:07;;;;;;;10.50;6.47;;;;;;;-3.68;100.00;98678.66;6098255;19;20003;-70
2023/12/03 04:26:08;;;;;;;15.13;7.63;;;;;;;-3.72;100.00;98680.31;6099372;19;20019;-70
2023/12/03 04:28:09;;;;;;;15.55;7.85;;;;;;;-3.71;100.00;98676.53;6099371;19;20002;-70
2023/12/03 04:30:10;;;;;;;13.00;6.93;;;;;;;-3.72;100.00;98677.63;6104337;19;20002;-70
2023/12/03 04:32:10;;;;;;;14.68;8.32;;;;;;;-3.73;100.00;98682.19;6103542;19;19998;-70
2023/12/03 04:34:10;;;;;;;16.67;8.15;;;;;;;-3.65;100.00;98683.50;6100159;19;20746;-70
2023/12/03 04:36:12;;;;;;;13.27;6.53;;;;;;;-3.62;100.00;98674.84;6103136;19;20013;-70
2023/12/03 04:38:12;;;;;;;17.13;8.38;;;;;;;-3.63;100.00;98677.81;6102051;19;20013;-70
2023/12/03 04:40:13;;;;;;;16.23;8.15;;;;;;;-3.67;100.00;98680.25;6103876;19;20011;-70
2023/12/03 04:42:13;;;;;;;17.23;8.50;;;;;;;-3.70;100.00;98678.13;6103826;19;20003;-70
2023/12/03 04:44:14;;;;;;;13.48;7.78;;;;;;;-3.67;100.00;98674.84;6102676;19;19999;-70
2023/12/03 04:46:14;;;;;;;16.92;8.15;;;;;;;-3.62;100.00;98665.91;6103295;19;20316;-70
2023/12/03 04:48:15;;;;;;;15.32;7.22;;;;;;;-3.63;100.00;98675.94;6101532;19;20048;-70
2023/12/03 04:50:15;;;;;;;17.67;8.65;;;;;;;-3.52;100.00;98677.47;6103351;19;20351;-70
2023/12/03 04:52:15;;;;;;;14.40;8.00;;;;;;;-3.59;100.00;98671.56;6102603;19;19998;-70
2023/12/03 04:54:16;;;;;;;15.52;7.10;;;;;;;-3.59;100.00;98674.25;6103214;19;20002;-70
2023/12/03 04:56:16;;;;;;;14.18;7.53;;;;;;;-3.57;100.00;98679.38;6102956;19;20462;-70
2023/12/03 04:58:17;;;;;;;13.57;7.38;;;;;;;-3.56;100.00;98683.69;6102378;19;20246;-70
2023/12/03 05:00:17;;;;;;;14.18;6.53;;;;;;;-3.54;100.00;98676.13;6103000;19;20822;-70
2023/12/03 05:02:18;;;;;;;16.48;8.48;;;;;;;-3.55;100.00;98688.06;6102937;19;20491;-70
2023/12/03 05:04:18;;;;;;;18.35;7.57;;;;;;;-3.46;100.00;98689.06;6102273;19;20015;-70
2023/12/03 05:06:18;;;;;;;12.57;7.75;;;;;;;-3.48;100.00;98681.22;6104256;19;19998;-70
2023/12/03 05:08:19;;;;;;;11.38;6.57;;;;;;;-3.50;100.00;98686.09;6102005;19;20098;-70
2023/12/03 05:10:19;;;;;;;16.25;7.93;;;;;;;-3.50;100.00;98683.41;6102583;19;20462;-70
2023/12/03 05:12:19;;;;;;;18.98;7.82;;;;;;;-3.56;100.00;98679.09;6102921;19;20076;-70
2023/12/03 05:14:20;;;;;;;14.35;7.78;;;;;;;-3.57;100.00;98682.09;6102562;19;20377;-70
2023/12/03 05:16:20;;;;;;;13.35;6.82;;;;;;;-3.49;100.00;98676.09;6103381;19;20006;-70
2023/12/03 05:18:20;;;;;;;13.20;6.82;;;;;;;-3.50;100.00;98677.97;6100831;19;20029;-70
2023/12/03 05:20:21;;;;;;;11.45;6.50;;;;;;;-3.51;100.00;98676.38;6103094;19;20022;-70
2023/12/03 05:22:21;;;;;;;11.63;6.32;;;;;;;-3.47;100.00;98682.84;6103048;19;20030;-70
2023/12/03 05:24:21;;;;;;;11.75;6.43;;;;;;;-3.44;100.00;98684.19;6102278;19;20056;-70
2023/12/03 05:26:22;;;;;;;11.77;6.53;;;;;;;-3.46;100.00;98681.75;6103935;19;20241;-70
2023/12/03 05:28:23;;;;;;;13.43;7.00;;;;;;;-3.45;100.00;98686.06;6101209;19;20386;-70
2023/12/03 05:30:25;;;;;;;11.70;6.72;;;;;;;-3.44;100.00;98690.41;6103668;19;20003;-70
2023/12/03 05:32:25;;;;;;;13.50;6.32;;;;;;;-3.40;100.00;98690.63;6102985;19;20573;-70
2023/12/03 05:34:26;;;;;;;14.77;7.18;;;;;;;-3.44;100.00;98693.09;6103135;19;20013;-70
2023/12/03 05:36:26;;;;;;;12.65;6.53;;;;;;;-3.44;100.00;98697.69;6102963;19;20450;-70
2023/12/03 05:38:26;;;;;;;14.07;7.65;;;;;;;-3.43;100.00;98694.72;6102690;19;20007;-70
2023/12/03 05:40:27;;;;;;;13.63;7.07;;;;;;;-3.41;100.00;98692.53;6101059;19;20609;-70
2023/12/03 05:42:28;;;;;;;14.18;7.65;;;;;;;-3.41;100.00;98697.94;6103922;19;20021;-70
2023/12/03 05:44:28;;;;;;;14.48;7.22;;;;;;;-3.34;100.00;98703.03;6102391;19;20010;-70
2023/12/03 05:46:28;;;;;;;12.45;7.05;;;;;;;-3.34;100.00;98699.53;6103105;19;20010;-70
2023/12/03 05:48:29;;;;;;;11.68;5.90;;;;;;;-3.29;100.00;98692.19;6102483;19;20002;-70
2023/12/03 05:50:29;;;;;;;13.23;6.30;;;;;;;-3.21;100.00;98698.91;6006567;19;20038;-70
2023/12/03 05:52:30;;;;;;;12.48;6.50;;;;;;;-3.23;100.00;98701.84;6102272;19;20007;-70
2023/12/03 05:54:30;;;;;;;15.90;7.38;;;;;;;-3.22;100.00;98702.69;6102513;19;20006;-70
2023/12/03 05:56:30;;;;;;;15.80;7.70;;;;;;;-3.28;100.00;98709.22;6103221;19;20006;-70
2023/12/03 05:58:31;;;;;;;16.75;6.60;;;;;;;-3.30;100.00;98714.94;6101472;19;20007;-70
2023/12/03 06:00:31;;;;;;;12.27;5.90;;;;;;;-3.28;100.00;98703.81;6103657;19;20329;-70
2023/12/03 06:02:35;;;;;;;13.77;6.68;;;;;;;-3.28;100.00;98710.03;6101697;19;20007;-70
2023/12/03 06:04:35;;;;;;;13.10;7.32;;;;;;;-3.24;100.00;98708.38;6101267;19;20003;-70
2023/12/03 06:06:36;;;;;;;13.75;7.75;;;;;;;-3.26;100.00;98705.13;6102278;19;20320;-70
2023/12/03 06:08:36;;;;;;;12.90;6.47;;;;;;;-3.19;100.00;98711.03;6100854;19;19998;-70
2023/12/03 06:10:37;;;;;;;14.82;6.72;;;;;;;-3.18;100.00;98714.56;6102058;19;20394;-70
2023/12/03 06:12:37;;;;;;;13.63;7.18;;;;;;;-3.22;100.00;98705.41;6102958;19;20470;-70
2023/12/03 06:14:37;;;;;;;15.45;8.25;;;;;;;-3.20;100.00;98711.34;6101200;19;20000;-70
2023/12/03 06:16:38;;;;;;;18.05;10.13;;;;;;;-3.18;100.00;98717.25;6102697;19;20045;-70
2023/12/03 06:18:38;;;;;;;13.13;7.22;;;;;;;-3.17;100.00;98733.22;6101897;19;20121;-70
2023/12/03 06:20:39;;;;;;;19.02;9.63;;;;;;;-3.11;100.00;98725.88;6103334;19;20017;-70
2023/12/03 06:22:39;;;;;;;13.93;7.82;;;;;;;-3.17;100.00;98727.00;6102955;19;20379;-70
2023/12/03 06:24:39;;;;;;;13.02;7.00;;;;;;;-3.15;100.00;98730.22;6102330;19;20912;-70
2023/12/03 06:26:40;;;;;;;14.38;7.05;;;;;;;-3.16;100.00;98726.72;6092727;19;20546;-70
2023/12/03 06:28:40;;;;;;;13.95;7.55;;;;;;;-3.17;100.00;98733.22;6098090;19;20082;-70
2023/12/03 06:30:40;;;;;;;13.68;7.20;;;;;;;-3.21;100.00;98731.38;6099206;19;20000;-70
2023/12/03 06:32:41;;;;;;;13.23;7.03;;;;;;;-3.23;100.00;98722.69;6101214;19;20106;-70
2023/12/03 06:34:41;;;;;;;14.32;7.47;;;;;;;-3.18;100.00;98738.91;6101409;19;19998;-70
2023/12/03 06:36:41;;;;;;;11.73;6.53;;;;;;;-3.23;100.00;98736.22;6101246;19;20233;-69
2023/12/03 06:38:42;;;;;;;12.30;6.57;;;;;;;-3.21;100.00;98734.06;6100811;19;20090;-70
2023/12/03 06:40:43;;;;;;;13.90;7.25;;;;;;;-3.19;100.00;98735.41;6102405;19;20410;-70
2023/12/03 06:42:44;;;;;;;13.27;6.93;;;;;;;-3.19;100.00;98737.31;6102209;19;20006;-70
2023/12/03 06:44:44;;;;;;;13.38;6.60;;;;;;;-3.20;100.00;98744.63;6099430;19;20253;-70
2023/12/03 06:46:45;;;;;;;11.52;6.25;;;;;;;-3.16;100.00;98747.56;6102804;19;20010;-70
2023/12/03 06:48:45;;;;;;;12.27;6.68;;;;;;;-3.22;100.00;98749.50;6100872;19;20011;-70
2023/12/03 06:50:45;;;;;;;13.25;7.32;;;;;;;-3.20;100.00;98747.31;6099933;19;20074;-70
2023/12/03 06:52:46;;;;;;;14.48;7.18;;;;;;;-3.19;100.00;98743.53;6101832;19;20030;-70
2023/12/03 06:54:46;;;;;;;15.25;7.45;;;;;;;-3.17;100.00;98749.44;6098448;19;20011;-70
2023/12/03 06:56:46;;;;;;;15.55;7.68;;;;;;;-3.14;100.00;98756.22;6099640;19;20010;-70
2023/12/03 06:58:47;;;;;;;14.95;8.20;;;;;;;-3.13;100.00;98752.41;6099011;19;20106;-70
2023/12/03 07:00:47;;;;;;;14.40;7.97;;;;;;;-3.11;100.00;98764.56;6097957;19;20015;-70
2023/12/03 07:02:47;;;;;;;15.57;9.15;;;;;;;-3.14;100.00;98759.72;6099594;19;20014;-70
2023/12/03 07:04:48;;;;;;;18.10;8.68;;;;;;;-3.11;100.00;98761.06;6097484;19;20474;-70
2023/12/03 07:06:48;;;;;;;23.08;10.82;;;;;;;-3.08;100.00;98762.38;6100909;19;20637;-70
2023/12/03 07:08:48;;;;;;;16.95;8.23;;;;;;;-3.09;100.00;98758.88;6099588;19;20010;-70
2023/12/03 07:10:49;;;;;;;24.58;9.93;;;;;;;-3.04;100.00;98766.97;6099367;19;20737;-70
2023/12/03 07:12:49;;;;;;;24.17;10.10;;;;;;;-3.07;100.00;98764.00;6099157;19;20014;-70
2023/12/03 07:14:49;;;;;;;16.58;8.10;;;;;;;-3.04;100.00;98769.69;6097895;19;20006;-70
2023/12/03 07:16:50;;;;;;;16.83;8.20;;;;;;;-3.02;100.00;98775.59;6097751;19;20230;-70
2023/12/03 07:18:50;;;;;;;14.52;7.00;;;;;;;-3.01;100.00;98771.81;6094533;19;20013;-70
2023/12/03 07:20:51;;;;;;;28.40;9.65;;;;;;;-3.04;100.00;98775.09;6098554;19;20002;-70
2023/12/03 07:22:51;;;;;;;14.73;8.20;;;;;;;-2.97;100.00;98772.06;6100092;19;20457;-70
2023/12/03 07:24:52;;;;;;;16.75;8.35;;;;;;;-2.98;100.00;98768.56;6098207;19;22101;-70
2023/12/03 07:26:53;;;;;;;18.42;8.05;;;;;;;-3.06;100.00;98779.16;6098998;19;20527;-69
2023/12/03 07:28:53;;;;;;;16.60;8.23;;;;;;;-3.02;100.00;98785.63;6092135;19;20265;-70
2023/12/03 07:30:53;;;;;;;15.60;7.20;;;;;;;-3.10;100.00;98776.22;6093899;19;20078;-69
2023/12/03 07:32:54;;;;;;;14.85;8.23;;;;;;;-3.07;100.00;98791.06;6093395;19;20111;-70
2023/12/03 07:34:54;;;;;;;21.80;7.75;;;;;;;-3.02;100.00;98778.31;6093072;19;20233;-70
2023/12/03 07:36:55;;;;;;;17.15;8.20;;;;;;;-3.04;100.00;98772.38;6092757;19;20069;-69
2023/12/03 07:38:55;;;;;;;17.92;7.18;;;;;;;-3.07;100.00;98781.06;6092282;19;20533;-70
2023/12/03 07:40:56;;;;;;;12.60;7.38;;;;;;;-3.00;100.00;98780.72;6092700;19;19998;-69
2023/12/03 07:42:56;;;;;;;14.52;8.38;;;;;;;-3.01;100.00;98781.84;6093006;19;20422;-70
2023/12/03 07:44:56;;;;;;;13.60;7.13;;;;;;;-3.02;100.00;98775.59;6092893;19;20010;-69
2023/12/03 07:46:57;;;;;;;14.43;7.95;;;;;;;-3.05;100.00;98775.38;6093663;19;20337;-70
2023/12/03 07:48:57;;;;;;;11.75;6.60;;;;;;;-3.05;100.00;98783.50;6092420;19;20003;-70
2023/12/03 07:50:58;;;;;;;12.15;6.47;;;;;;;-3.05;100.00;98775.38;6091625;19;20029;-70
2023/12/03 07:52:59;;;;;;;13.82;7.35;;;;;;;-3.00;100.00;98788.84;6092708;19;20007;-70
2023/12/03 07:54:59;;;;;;;15.93;7.15;;;;;;;-2.99;100.00;98787.75;6092011;19;20594;-70
2023/12/03 07:56:59;;;;;;;12.43;6.50;;;;;;;-3.00;100.00;98797.78;6093234;19;20335;-70
2023/12/03 07:59:00;;;;;;;14.02;6.35;;;;;;;-3.01;100.00;98796.16;6090474;19;20010;-70
2023/12/03 08:01:00;;;;;;;13.23;6.18;;;;;;;-2.97;100.00;98809.97;6092891;19;20312;-70
2023/12/03 08:03:01;;;;;;;15.88;6.65;;;;;;;-2.96;100.00;98809.69;6095567;19;20011;-70
2023/12/03 08:05:01;;;;;;;13.85;7.43;;;;;;;-2.92;100.00;98809.91;6096253;19;20003;-70
2023/12/03 08:07:01;;;;;;;16.92;8.13;;;;;;;-2.95;100.00;98814.00;6095425;19;20033;-69
2023/12/03 08:09:02;;;;;;;15.95;8.23;;;;;;;-2.93;100.00;98819.13;6095916;19;20021;-70
2023/12/03 08:11:02;;;;;;;19.50;9.15;;;;;;;-2.97;100.00;98826.22;6091819;19;20019;-69
2023/12/03 08:13:03;;;;;;;13.70;7.97;;;;;;;-2.95;100.00;98822.13;6094801;19;20284;-69
2023/12/03 08:15:03;;;;;;;15.98;8.05;;;;;;;-2.96;100.00;98833.25;6097894;19;20013;-69
2023/12/03 08:17:04;;;;;;;17.27;8.30;;;;;;;-2.93;100.00;98827.25;6098637;19;20074;-70
2023/12/03 08:19:04;;;;;;;16.42;8.35;;;;;;;-2.94;100.00;98831.06;6097279;19;20014;-70
2023/12/03 08:21:05;;;;;;;14.45;7.25;;;;;;;-2.86;100.00;98831.25;6099316;19;20003;-69
2023/12/03 08:23:05;;;;;;;13.00;7.28;;;;;;;-2.83;100.00;98827.19;6095662;19;20336;-69
2023/12/03 08:25:07;;;;;;;13.80;7.38;;;;;;;-2.84;100.00;98830.97;6098420;19;20081;-70
2023/12/03 08:27:07;;;;;;;14.13;7.45;;;;;;;-2.89;100.00;98829.13;6100073;19;20290;-70
2023/12/03 08:29:07;;;;;;;12.90;7.00;;;;;;;-2.87;100.00;98834.25;6104326;19;20006;-70
2023/12/03 08:31:08;;;;;;;14.80;7.00;;;;;;;-2.88;100.00;98836.16;6104531;19;20002;-69
2023/12/03 08:33:08;;;;;;;17.38;8.55;;;;;;;-2.82;100.00;98835.00;6105459;19;19998;-70
2023/12/03 08:35:09;;;;;;;16.48;7.07;;;;;;;-2.83;100.00;98833.41;6103985;19;20007;-69
2023/12/03 08:37:09;;;;;;;15.23;8.18;;;;;;;-2.74;100.00;98838.22;6105213;19;20006;-69
2023/12/03 08:39:10;;;;;;;10.90;6.75;;;;;;;-2.77;100.00;98831.47;6103857;19;20557;-70
2023/12/03 08:41:10;;;;;;;13.25;6.47;;;;;;;-2.75;100.00;98844.72;6105161;19;20018;-70
2023/12/03 08:43:11;;;;;;;13.82;7.15;;;;;;;-2.72;100.00;98836.06;6104021;19;20007;-70
2023/12/03 08:45:11;;;;;;;15.10;7.10;;;;;;;-2.76;100.00;98833.09;6104825;19;20026;-70
2023/12/03 08:47:12;;;;;;;10.55;5.88;;;;;;;-2.68;100.00;98837.91;6104962;19;20323;-69
2023/12/03 08:49:13;;;;;;;13.38;6.75;;;;;;;-2.65;100.00;98844.66;6103476;19;20062;-69
2023/12/03 08:51:14;;;;;;;13.82;7.38;;;;;;;-2.67;100.00;98834.09;6102539;19;20011;-70
2023/12/03 08:53:15;;;;;;;13.05;6.50;;;;;;;-2.63;100.00;98840.59;6102658;19;19998;-70
2023/12/03 08:55:15;;;;;;;13.02;6.82;;;;;;;-2.60;100.00;98847.31;6101695;19;20441;-69
2023/12/03 08:57:15;;;;;;;15.38;7.78;;;;;;;-2.58;100.00;98847.84;6098370;19;20011;-70
2023/12/03 08:59:16;;;;;;;14.15;7.20;;;;;;;-2.56;100.00;98851.09;6102002;19;20030;-70
2023/12/03 09:01:16;;;;;;;13.40;7.53;;;;;;;-2.55;100.00;98852.72;6104735;19;20014;-70
2023/12/03 09:03:16;;;;;;;12.75;6.90;;;;;;;-2.52;100.00;98862.16;6103390;19;20006;-70
2023/12/03 09:05:17;;;;;;;12.32;6.85;;;;;;;-2.48;100.00;98868.63;6101828;19;20005;-70
2023/12/03 09:07:18;;;;;;;12.82;8.13;;;;;;;-2.45;100.00;98855.34;6104522;19;20002;-69
2023/12/03 09:09:18;;;;;;;14.18;7.60;;;;;;;-2.48;100.00;98863.22;6103096;19;20015;-70
2023/12/03 09:11:18;;;;;;;14.30;7.60;;;;;;;-2.45;100.00;98855.34;6103314;19;20002;-69
2023/12/03 09:13:19;;;;;;;14.52;7.95;;;;;;;-2.40;100.00;98855.31;6102360;19;20017;-69